sensor_id;sensor_type;location;lat;lon;timestamp;temperature;humidity
23231;DHT22;11784;49.818;8.632;2023-03-01T00:01:41;5.40;57.90
23231;DHT22;11784;49.818;8.632;2023-03-01T00:04:06;5.40;58.10
23231;DHT22;11784;49.818;8.632;2023-03-01T00:06:32;5.40;57.90
23231;DHT22;11784;49.818;8.632;2023-03-01T00:08:57;5.40;58.20
23231;DHT22;11784;49.818;8.632;2023-03-01T00:11:26;5.40;58.30
23231;DHT22;11784;49.818;8.632;2023-03-01T00:13:54;5.40;58.40
23231;DHT22;11784;49.818;8.632;2023-03-01T00:16:31;5.40;58.30
23231;DHT22;11784;49.818;8.632;2023-03-01T00:18:58;5.40;58.30
23231;DHT22;11784;49.818;8.632;2023-03-01T00:21:25;5.50;58.30
23231;DHT22;11784;49.818;8.632;2023-03-01T00:23:51;5.50;58.20
23231;DHT22;11784;49.818;8.632;2023-03-01T00:26:18;5.50;57.90
23231;DHT22;11784;49.818;8.632;2023-03-01T00:28:44;5.50;58.30
23231;DHT22;11784;49.818;8.632;2023-03-01T00:31:18;5.50;57.90
23231;DHT22;11784;49.818;8.632;2023-03-01T00:33:44;5.60;58.30
23231;DHT22;11784;49.818;8.632;2023-03-01T00:36:12;5.60;58.00
23231;DHT22;11784;49.818;8.632;2023-03-01T00:38:41;5.60;57.90
23231;DHT22;11784;49.818;8.632;2023-03-01T00:41:08;5.60;57.60
23231;DHT22;11784;49.818;8.632;2023-03-01T00:43:34;5.60;57.60
23231;DHT22;11784;49.818;8.632;2023-03-01T00:46:13;5.70;57.20
23231;DHT22;11784;49.818;8.632;2023-03-01T00:48:39;5.70;57.30
23231;DHT22;11784;49.818;8.632;2023-03-01T00:51:10;5.70;57.80
23231;DHT22;11784;49.818;8.632;2023-03-01T00:53:36;5.70;57.90
23231;DHT22;11784;49.818;8.632;2023-03-01T00:56:03;5.60;57.80
23231;DHT22;11784;49.818;8.632;2023-03-01T00:58:30;5.60;57.70
23231;DHT22;11784;49.818;8.632;2023-03-01T01:00:55;5.70;57.60
23231;DHT22;11784;49.818;8.632;2023-03-01T01:03:21;5.70;57.90
23231;DHT22;11784;49.818;8.632;2023-03-01T01:05:48;5.70;57.60
23231;DHT22;11784;49.818;8.632;2023-03-01T01:08:14;5.70;57.70
23231;DHT22;11784;49.818;8.632;2023-03-01T01:10:39;5.60;58.30
23231;DHT22;11784;49.818;8.632;2023-03-01T01:13:05;5.60;58.40
23231;DHT22;11784;49.818;8.632;2023-03-01T01:15:34;5.60;58.30
23231;DHT22;11784;49.818;8.632;2023-03-01T01:18:01;5.70;58.50
23231;DHT22;11784;49.818;8.632;2023-03-01T01:20:26;5.60;58.40
23231;DHT22;11784;49.818;8.632;2023-03-01T01:22:52;5.70;58.40
23231;DHT22;11784;49.818;8.632;2023-03-01T01:25:18;5.70;58.00
23231;DHT22;11784;49.818;8.632;2023-03-01T01:27:44;5.70;57.80
23231;DHT22;11784;49.818;8.632;2023-03-01T01:30:10;5.70;57.80
23231;DHT22;11784;49.818;8.632;2023-03-01T01:32:36;5.60;58.50
23231;DHT22;11784;49.818;8.632;2023-03-01T01:35:02;5.60;58.60
23231;DHT22;11784;49.818;8.632;2023-03-01T01:37:27;5.60;58.80
23231;DHT22;11784;49.818;8.632;2023-03-01T01:39:57;5.60;58.20
23231;DHT22;11784;49.818;8.632;2023-03-01T01:42:23;5.50;57.70
23231;DHT22;11784;49.818;8.632;2023-03-01T01:47:50;5.50;58.00
23231;DHT22;11784;49.818;8.632;2023-03-01T01:50:17;5.50;58.00
23231;DHT22;11784;49.818;8.632;2023-03-01T01:52:45;5.50;58.10
23231;DHT22;11784;49.818;8.632;2023-03-01T01:55:15;5.50;58.00
23231;DHT22;11784;49.818;8.632;2023-03-01T01:57:48;5.40;57.90
23231;DHT22;11784;49.818;8.632;2023-03-01T02:00:21;5.40;57.90
23231;DHT22;11784;49.818;8.632;2023-03-01T02:02:50;5.40;58.20
23231;DHT22;11784;49.818;8.632;2023-03-01T02:05:46;5.40;58.60
23231;DHT22;11784;49.818;8.632;2023-03-01T02:08:14;5.40;58.70
23231;DHT22;11784;49.818;8.632;2023-03-01T02:10:41;5.40;58.70
23231;DHT22;11784;49.818;8.632;2023-03-01T02:13:07;5.40;58.50
23231;DHT22;11784;49.818;8.632;2023-03-01T02:15:34;5.30;58.10
23231;DHT22;11784;49.818;8.632;2023-03-01T02:18:02;5.20;58.00
23231;DHT22;11784;49.818;8.632;2023-03-01T02:20:56;5.30;59.10
23231;DHT22;11784;49.818;8.632;2023-03-01T02:23:27;5.20;59.20
23231;DHT22;11784;49.818;8.632;2023-03-01T02:26:02;5.30;59.30
23231;DHT22;11784;49.818;8.632;2023-03-01T02:28:37;5.30;59.10
23231;DHT22;11784;49.818;8.632;2023-03-01T02:31:07;5.30;59.00
23231;DHT22;11784;49.818;8.632;2023-03-01T02:33:53;5.30;59.10
23231;DHT22;11784;49.818;8.632;2023-03-01T02:36:23;5.30;58.90
23231;DHT22;11784;49.818;8.632;2023-03-01T02:38:52;5.40;59.30
23231;DHT22;11784;49.818;8.632;2023-03-01T02:41:19;5.40;59.50
23231;DHT22;11784;49.818;8.632;2023-03-01T02:43:45;5.40;58.90
23231;DHT22;11784;49.818;8.632;2023-03-01T02:46:22;5.50;58.70
23231;DHT22;11784;49.818;8.632;2023-03-01T02:48:56;5.50;58.80
23231;DHT22;11784;49.818;8.632;2023-03-01T02:51:26;5.50;58.50
23231;DHT22;11784;49.818;8.632;2023-03-01T02:54:14;5.50;58.90
23231;DHT22;11784;49.818;8.632;2023-03-01T02:56:41;5.50;58.50
23231;DHT22;11784;49.818;8.632;2023-03-01T02:59:08;5.50;58.60
23231;DHT22;11784;49.818;8.632;2023-03-01T03:01:34;5.50;58.60
23231;DHT22;11784;49.818;8.632;2023-03-01T03:04:10;5.50;58.10
23231;DHT22;11784;49.818;8.632;2023-03-01T03:06:36;5.50;58.70
23231;DHT22;11784;49.818;8.632;2023-03-01T03:09:03;5.40;58.60
23231;DHT22;11784;49.818;8.632;2023-03-01T03:11:29;5.40;59.30
23231;DHT22;11784;49.818;8.632;2023-03-01T03:13:56;5.40;59.10
23231;DHT22;11784;49.818;8.632;2023-03-01T03:16:21;5.50;58.70
23231;DHT22;11784;49.818;8.632;2023-03-01T03:18:47;5.40;58.90
23231;DHT22;11784;49.818;8.632;2023-03-01T03:21:13;5.50;59.00
23231;DHT22;11784;49.818;8.632;2023-03-01T03:23:39;5.40;59.00
23231;DHT22;11784;49.818;8.632;2023-03-01T03:26:05;5.40;59.00
23231;DHT22;11784;49.818;8.632;2023-03-01T03:28:32;5.40;59.20
23231;DHT22;11784;49.818;8.632;2023-03-01T03:30:57;5.40;59.70
23231;DHT22;11784;49.818;8.632;2023-03-01T03:33:24;5.40;59.50
23231;DHT22;11784;49.818;8.632;2023-03-01T03:35:50;5.40;59.70
23231;DHT22;11784;49.818;8.632;2023-03-01T03:38:18;5.40;59.50
23231;DHT22;11784;49.818;8.632;2023-03-01T03:40:54;5.40;59.30
23231;DHT22;11784;49.818;8.632;2023-03-01T03:43:26;5.40;58.90
23231;DHT22;11784;49.818;8.632;2023-03-01T03:45:52;5.40;58.90
23231;DHT22;11784;49.818;8.632;2023-03-01T03:48:18;5.40;58.90
23231;DHT22;11784;49.818;8.632;2023-03-01T03:50:51;5.40;59.50
23231;DHT22;11784;49.818;8.632;2023-03-01T03:53:18;5.40;59.60
23231;DHT22;11784;49.818;8.632;2023-03-01T03:55:44;5.40;59.50
23231;DHT22;11784;49.818;8.632;2023-03-01T03:58:10;5.40;59.70
23231;DHT22;11784;49.818;8.632;2023-03-01T04:00:44;5.40;59.70
23231;DHT22;11784;49.818;8.632;2023-03-01T04:03:11;5.40;59.70
23231;DHT22;11784;49.818;8.632;2023-03-01T04:05:38;5.50;59.70
23231;DHT22;11784;49.818;8.632;2023-03-01T04:08:04;5.40;59.70
23231;DHT22;11784;49.818;8.632;2023-03-01T04:10:56;5.50;59.70
23231;DHT22;11784;49.818;8.632;2023-03-01T04:13:22;5.50;59.60
23231;DHT22;11784;49.818;8.632;2023-03-01T04:15:51;5.50;59.50
23231;DHT22;11784;49.818;8.632;2023-03-01T04:18:18;5.50;59.70
23231;DHT22;11784;49.818;8.632;2023-03-01T04:20:45;5.60;59.60
23231;DHT22;11784;49.818;8.632;2023-03-01T04:23:17;5.60;58.80
23231;DHT22;11784;49.818;8.632;2023-03-01T04:25:51;5.60;58.60
23231;DHT22;11784;49.818;8.632;2023-03-01T04:28:25;5.60;58.30
23231;DHT22;11784;49.818;8.632;2023-03-01T04:30:52;5.60;58.80
23231;DHT22;11784;49.818;8.632;2023-03-01T04:33:18;5.60;59.00
23231;DHT22;11784;49.818;8.632;2023-03-01T04:35:44;5.60;58.90
23231;DHT22;11784;49.818;8.632;2023-03-01T04:38:09;5.60;58.60
23231;DHT22;11784;49.818;8.632;2023-03-01T04:40:35;5.60;58.80
23231;DHT22;11784;49.818;8.632;2023-03-01T04:43:02;5.60;58.70
23231;DHT22;11784;49.818;8.632;2023-03-01T04:45:27;5.60;59.00
23231;DHT22;11784;49.818;8.632;2023-03-01T04:47:53;5.60;59.00
23231;DHT22;11784;49.818;8.632;2023-03-01T04:50:19;5.60;58.70
23231;DHT22;11784;49.818;8.632;2023-03-01T04:52:46;5.60;59.40
23231;DHT22;11784;49.818;8.632;2023-03-01T04:55:12;5.60;58.70
23231;DHT22;11784;49.818;8.632;2023-03-01T04:57:38;5.60;58.70
23231;DHT22;11784;49.818;8.632;2023-03-01T05:00:05;5.60;59.00
23231;DHT22;11784;49.818;8.632;2023-03-01T05:02:49;5.60;58.70
23231;DHT22;11784;49.818;8.632;2023-03-01T05:05:19;5.60;59.10
23231;DHT22;11784;49.818;8.632;2023-03-01T05:07:45;5.50;59.50
23231;DHT22;11784;49.818;8.632;2023-03-01T05:10:10;5.50;59.50
23231;DHT22;11784;49.818;8.632;2023-03-01T05:12:36;5.50;59.70
23231;DHT22;11784;49.818;8.632;2023-03-01T05:15:03;5.50;60.10
23231;DHT22;11784;49.818;8.632;2023-03-01T05:17:32;5.50;59.70
23231;DHT22;11784;49.818;8.632;2023-03-01T05:19:58;5.50;59.80
23231;DHT22;11784;49.818;8.632;2023-03-01T05:22:24;5.40;59.60
23231;DHT22;11784;49.818;8.632;2023-03-01T05:24:50;5.40;59.40
23231;DHT22;11784;49.818;8.632;2023-03-01T05:27:15;5.40;60.10
23231;DHT22;11784;49.818;8.632;2023-03-01T05:29:41;5.40;60.20
23231;DHT22;11784;49.818;8.632;2023-03-01T05:32:06;5.40;60.10
23231;DHT22;11784;49.818;8.632;2023-03-01T05:34:35;5.40;60.10
23231;DHT22;11784;49.818;8.632;2023-03-01T05:37:02;5.50;60.00
23231;DHT22;11784;49.818;8.632;2023-03-01T05:39:28;5.50;59.80
23231;DHT22;11784;49.818;8.632;2023-03-01T05:41:56;5.50;59.60
23231;DHT22;11784;49.818;8.632;2023-03-01T05:44:23;5.50;60.60
23231;DHT22;11784;49.818;8.632;2023-03-01T05:46:49;5.50;59.90
23231;DHT22;11784;49.818;8.632;2023-03-01T05:49:15;5.50;59.40
23231;DHT22;11784;49.818;8.632;2023-03-01T05:51:42;5.50;59.20
23231;DHT22;11784;49.818;8.632;2023-03-01T05:54:10;5.50;59.30
23231;DHT22;11784;49.818;8.632;2023-03-01T05:56:36;5.50;59.20
23231;DHT22;11784;49.818;8.632;2023-03-01T05:59:03;5.60;59.80
23231;DHT22;11784;49.818;8.632;2023-03-01T06:01:32;5.60;59.70
23231;DHT22;11784;49.818;8.632;2023-03-01T06:03:58;5.50;59.40
23231;DHT22;11784;49.818;8.632;2023-03-01T06:06:24;5.50;59.40
23231;DHT22;11784;49.818;8.632;2023-03-01T06:08:50;5.50;59.20
23231;DHT22;11784;49.818;8.632;2023-03-01T06:11:16;5.50;59.30
23231;DHT22;11784;49.818;8.632;2023-03-01T06:13:45;5.50;59.70
23231;DHT22;11784;49.818;8.632;2023-03-01T06:16:12;5.50;59.40
23231;DHT22;11784;49.818;8.632;2023-03-01T06:18:38;5.50;59.10
23231;DHT22;11784;49.818;8.632;2023-03-01T06:21:05;5.50;59.50
23231;DHT22;11784;49.818;8.632;2023-03-01T06:23:31;5.50;59.80
23231;DHT22;11784;49.818;8.632;2023-03-01T06:25:57;5.50;60.30
23231;DHT22;11784;49.818;8.632;2023-03-01T06:28:23;5.50;60.60
23231;DHT22;11784;49.818;8.632;2023-03-01T06:30:50;5.50;60.20
23231;DHT22;11784;49.818;8.632;2023-03-01T06:33:17;5.60;59.80
23231;DHT22;11784;49.818;8.632;2023-03-01T06:35:45;5.60;59.80
23231;DHT22;11784;49.818;8.632;2023-03-01T06:38:11;5.60;59.50
23231;DHT22;11784;49.818;8.632;2023-03-01T06:40:40;5.70;59.80
23231;DHT22;11784;49.818;8.632;2023-03-01T06:43:06;5.60;59.50
23231;DHT22;11784;49.818;8.632;2023-03-01T06:45:32;5.70;60.30
23231;DHT22;11784;49.818;8.632;2023-03-01T06:48:05;5.70;60.10
23231;DHT22;11784;49.818;8.632;2023-03-01T06:50:31;5.70;60.50
23231;DHT22;11784;49.818;8.632;2023-03-01T06:52:57;5.70;60.40
23231;DHT22;11784;49.818;8.632;2023-03-01T06:55:23;5.80;60.20
23231;DHT22;11784;49.818;8.632;2023-03-01T06:57:53;5.80;59.90
23231;DHT22;11784;49.818;8.632;2023-03-01T07:00:19;5.90;59.70
23231;DHT22;11784;49.818;8.632;2023-03-01T07:02:45;5.90;59.90
23231;DHT22;11784;49.818;8.632;2023-03-01T07:05:10;5.90;59.70
23231;DHT22;11784;49.818;8.632;2023-03-01T07:07:36;6.00;59.40
23231;DHT22;11784;49.818;8.632;2023-03-01T07:10:02;6.10;59.90
23231;DHT22;11784;49.818;8.632;2023-03-01T07:12:27;6.10;59.00
23231;DHT22;11784;49.818;8.632;2023-03-01T07:14:53;6.10;58.90
23231;DHT22;11784;49.818;8.632;2023-03-01T07:17:18;6.20;58.20
23231;DHT22;11784;49.818;8.632;2023-03-01T07:19:44;6.20;58.60
23231;DHT22;11784;49.818;8.632;2023-03-01T07:22:10;6.30;58.60
23231;DHT22;11784;49.818;8.632;2023-03-01T07:24:36;6.40;58.30
23231;DHT22;11784;49.818;8.632;2023-03-01T07:27:01;6.40;57.90
23231;DHT22;11784;49.818;8.632;2023-03-01T07:29:27;6.50;57.60
23231;DHT22;11784;49.818;8.632;2023-03-01T07:31:54;6.50;57.50
23231;DHT22;11784;49.818;8.632;2023-03-01T07:34:19;6.60;57.90
23231;DHT22;11784;49.818;8.632;2023-03-01T07:36:45;6.70;57.80
23231;DHT22;11784;49.818;8.632;2023-03-01T07:39:11;6.80;57.60
23231;DHT22;11784;49.818;8.632;2023-03-01T07:41:37;6.80;57.30
23231;DHT22;11784;49.818;8.632;2023-03-01T07:44:02;6.80;57.20
23231;DHT22;11784;49.818;8.632;2023-03-01T07:46:28;6.90;57.70
23231;DHT22;11784;49.818;8.632;2023-03-01T07:48:53;6.90;57.00
23231;DHT22;11784;49.818;8.632;2023-03-01T07:51:19;7.00;56.90
23231;DHT22;11784;49.818;8.632;2023-03-01T07:53:47;7.00;56.70
23231;DHT22;11784;49.818;8.632;2023-03-01T07:56:14;7.10;56.10
23231;DHT22;11784;49.818;8.632;2023-03-01T07:58:43;7.10;55.30
23231;DHT22;11784;49.818;8.632;2023-03-01T08:01:11;7.10;55.40
23231;DHT22;11784;49.818;8.632;2023-03-01T08:03:37;7.10;55.50
23231;DHT22;11784;49.818;8.632;2023-03-01T08:06:05;7.20;55.20
23231;DHT22;11784;49.818;8.632;2023-03-01T08:08:31;7.30;55.50
23231;DHT22;11784;49.818;8.632;2023-03-01T08:10:58;7.30;55.00
23231;DHT22;11784;49.818;8.632;2023-03-01T08:13:24;7.30;54.70
23231;DHT22;11784;49.818;8.632;2023-03-01T08:15:50;7.40;54.90
23231;DHT22;11784;49.818;8.632;2023-03-01T08:18:17;7.40;54.50
23231;DHT22;11784;49.818;8.632;2023-03-01T08:20:43;7.50;54.20
23231;DHT22;11784;49.818;8.632;2023-03-01T08:23:09;7.50;53.70
23231;DHT22;11784;49.818;8.632;2023-03-01T08:25:34;7.50;53.80
23231;DHT22;11784;49.818;8.632;2023-03-01T08:28:00;7.50;53.80
23231;DHT22;11784;49.818;8.632;2023-03-01T08:30:25;7.50;53.50
23231;DHT22;11784;49.818;8.632;2023-03-01T08:32:51;7.50;53.60
23231;DHT22;11784;49.818;8.632;2023-03-01T08:35:17;7.50;53.60
23231;DHT22;11784;49.818;8.632;2023-03-01T08:37:44;7.50;53.20
23231;DHT22;11784;49.818;8.632;2023-03-01T08:40:10;7.60;53.40
23231;DHT22;11784;49.818;8.632;2023-03-01T08:42:36;7.60;53.40
23231;DHT22;11784;49.818;8.632;2023-03-01T08:45:03;7.60;53.50
23231;DHT22;11784;49.818;8.632;2023-03-01T08:47:28;7.60;53.10
23231;DHT22;11784;49.818;8.632;2023-03-01T08:49:54;7.60;53.20
23231;DHT22;11784;49.818;8.632;2023-03-01T08:52:20;7.60;53.10
23231;DHT22;11784;49.818;8.632;2023-03-01T08:54:49;7.70;52.80
23231;DHT22;11784;49.818;8.632;2023-03-01T08:57:14;7.60;52.70
23231;DHT22;11784;49.818;8.632;2023-03-01T08:59:40;7.60;52.70
23231;DHT22;11784;49.818;8.632;2023-03-01T09:02:11;7.70;53.10
23231;DHT22;11784;49.818;8.632;2023-03-01T09:04:37;7.70;52.80
23231;DHT22;11784;49.818;8.632;2023-03-01T09:07:03;7.70;52.80
23231;DHT22;11784;49.818;8.632;2023-03-01T09:09:29;7.70;52.70
23231;DHT22;11784;49.818;8.632;2023-03-01T09:11:54;7.70;52.90
23231;DHT22;11784;49.818;8.632;2023-03-01T09:14:20;7.70;52.50
23231;DHT22;11784;49.818;8.632;2023-03-01T09:16:45;7.80;53.00
23231;DHT22;11784;49.818;8.632;2023-03-01T09:19:11;7.80;52.70
23231;DHT22;11784;49.818;8.632;2023-03-01T09:21:37;7.90;52.90
23231;DHT22;11784;49.818;8.632;2023-03-01T09:24:03;7.90;53.20
23231;DHT22;11784;49.818;8.632;2023-03-01T09:26:28;7.90;52.50
23231;DHT22;11784;49.818;8.632;2023-03-01T09:28:55;8.00;52.40
23231;DHT22;11784;49.818;8.632;2023-03-01T09:31:22;8.00;52.50
23231;DHT22;11784;49.818;8.632;2023-03-01T09:33:50;8.00;52.70
23231;DHT22;11784;49.818;8.632;2023-03-01T09:36:18;8.00;52.70
23231;DHT22;11784;49.818;8.632;2023-03-01T09:38:44;8.00;52.40
23231;DHT22;11784;49.818;8.632;2023-03-01T09:43:59;8.10;53.60
23231;DHT22;11784;49.818;8.632;2023-03-01T09:46:41;8.10;52.00
23231;DHT22;11784;49.818;8.632;2023-03-01T09:49:14;8.20;52.90
23231;DHT22;11784;49.818;8.632;2023-03-01T09:51:48;8.20;52.60
23231;DHT22;11784;49.818;8.632;2023-03-01T09:54:19;8.20;51.90
23231;DHT22;11784;49.818;8.632;2023-03-01T09:56:52;8.30;52.30
23231;DHT22;11784;49.818;8.632;2023-03-01T09:59:37;8.30;52.00
23231;DHT22;11784;49.818;8.632;2023-03-01T10:04:48;8.40;51.20
23231;DHT22;11784;49.818;8.632;2023-03-01T10:10:08;8.50;51.40
23231;DHT22;11784;49.818;8.632;2023-03-01T10:12:40;8.60;50.90
23231;DHT22;11784;49.818;8.632;2023-03-01T10:15:34;8.60;50.60
23231;DHT22;11784;49.818;8.632;2023-03-01T10:18:06;8.60;50.80
23231;DHT22;11784;49.818;8.632;2023-03-01T10:20:54;8.60;50.70
23231;DHT22;11784;49.818;8.632;2023-03-01T10:23:24;8.60;50.50
23231;DHT22;11784;49.818;8.632;2023-03-01T10:28:38;8.70;50.80
23231;DHT22;11784;49.818;8.632;2023-03-01T10:31:05;8.80;51.10
23231;DHT22;11784;49.818;8.632;2023-03-01T10:33:37;8.80;50.30
23231;DHT22;11784;49.818;8.632;2023-03-01T10:36:05;8.90;50.60
23231;DHT22;11784;49.818;8.632;2023-03-01T10:38:50;9.00;50.20
23231;DHT22;11784;49.818;8.632;2023-03-01T10:41:19;9.00;49.60
23231;DHT22;11784;49.818;8.632;2023-03-01T10:43:53;9.00;49.70
23231;DHT22;11784;49.818;8.632;2023-03-01T10:49:07;9.10;49.70
23231;DHT22;11784;49.818;8.632;2023-03-01T10:51:39;9.20;49.60
23231;DHT22;11784;49.818;8.632;2023-03-01T10:54:06;9.30;49.60
23231;DHT22;11784;49.818;8.632;2023-03-01T10:56:51;9.30;49.40
23231;DHT22;11784;49.818;8.632;2023-03-01T10:59:32;9.30;50.00
23231;DHT22;11784;49.818;8.632;2023-03-01T11:02:23;9.40;48.90
23231;DHT22;11784;49.818;8.632;2023-03-01T11:07:27;9.50;48.80
23231;DHT22;11784;49.818;8.632;2023-03-01T11:09:53;9.60;49.00
23231;DHT22;11784;49.818;8.632;2023-03-01T11:12:20;9.60;48.10
23231;DHT22;11784;49.818;8.632;2023-03-01T11:14:51;9.60;48.50
23231;DHT22;11784;49.818;8.632;2023-03-01T11:17:25;9.70;48.70
23231;DHT22;11784;49.818;8.632;2023-03-01T11:20:17;9.80;48.30
23231;DHT22;11784;49.818;8.632;2023-03-01T11:22:49;9.80;48.50
23231;DHT22;11784;49.818;8.632;2023-03-01T11:25:15;9.80;47.70
23231;DHT22;11784;49.818;8.632;2023-03-01T11:27:44;9.80;47.30
23231;DHT22;11784;49.818;8.632;2023-03-01T11:30:30;9.80;47.60
23231;DHT22;11784;49.818;8.632;2023-03-01T11:35:29;9.80;46.80
23231;DHT22;11784;49.818;8.632;2023-03-01T11:46:18;10.00;46.70
23231;DHT22;11784;49.818;8.632;2023-03-01T11:48:58;10.00;47.20
23231;DHT22;11784;49.818;8.632;2023-03-01T11:54:42;10.10;47.30
23231;DHT22;11784;49.818;8.632;2023-03-01T12:00:20;10.20;46.30
23231;DHT22;11784;49.818;8.632;2023-03-01T12:03:16;10.20;45.90
23231;DHT22;11784;49.818;8.632;2023-03-01T12:05:53;10.20;46.20
23231;DHT22;11784;49.818;8.632;2023-03-01T12:08:30;10.30;46.10
23231;DHT22;11784;49.818;8.632;2023-03-01T12:13:52;10.40;45.80
23231;DHT22;11784;49.818;8.632;2023-03-01T12:35:54;10.60;44.20
23231;DHT22;11784;49.818;8.632;2023-03-01T12:41:15;10.70;44.60
23231;DHT22;11784;49.818;8.632;2023-03-01T12:49:29;10.90;44.40
23231;DHT22;11784;49.818;8.632;2023-03-01T12:52:15;10.90;43.50
23231;DHT22;11784;49.818;8.632;2023-03-01T12:54:42;11.00;43.30
23231;DHT22;11784;49.818;8.632;2023-03-01T12:57:28;10.90;43.80
23231;DHT22;11784;49.818;8.632;2023-03-01T13:00:15;11.00;43.60
23231;DHT22;11784;49.818;8.632;2023-03-01T13:02:52;11.10;43.70
23231;DHT22;11784;49.818;8.632;2023-03-01T13:05:37;11.10;43.70
23231;DHT22;11784;49.818;8.632;2023-03-01T13:08:20;11.20;44.70
23231;DHT22;11784;49.818;8.632;2023-03-01T13:10:50;11.40;43.90
23231;DHT22;11784;49.818;8.632;2023-03-01T13:13:24;11.40;43.40
23231;DHT22;11784;49.818;8.632;2023-03-01T13:15:51;11.50;43.70
23231;DHT22;11784;49.818;8.632;2023-03-01T13:20:50;11.70;42.90
23231;DHT22;11784;49.818;8.632;2023-03-01T13:28:39;11.90;42.80
23231;DHT22;11784;49.818;8.632;2023-03-01T13:33:56;12.00;42.10
23231;DHT22;11784;49.818;8.632;2023-03-01T13:36:46;12.10;41.90
23231;DHT22;11784;49.818;8.632;2023-03-01T13:39:30;12.20;42.30
23231;DHT22;11784;49.818;8.632;2023-03-01T13:41:58;12.30;42.20
23231;DHT22;11784;49.818;8.632;2023-03-01T13:44:36;12.40;42.00
23231;DHT22;11784;49.818;8.632;2023-03-01T13:47:24;12.50;41.50
23231;DHT22;11784;49.818;8.632;2023-03-01T13:49:57;12.60;41.00
23231;DHT22;11784;49.818;8.632;2023-03-01T13:52:45;12.80;41.30
23231;DHT22;11784;49.818;8.632;2023-03-01T13:55:15;12.90;40.80
23231;DHT22;11784;49.818;8.632;2023-03-01T13:57:47;13.00;40.60
23231;DHT22;11784;49.818;8.632;2023-03-01T14:00:28;13.20;40.50
23231;DHT22;11784;49.818;8.632;2023-03-01T14:03:20;13.50;39.70
23231;DHT22;11784;49.818;8.632;2023-03-01T14:06:04;13.80;39.70
23231;DHT22;11784;49.818;8.632;2023-03-01T14:08:34;14.40;39.10
23231;DHT22;11784;49.818;8.632;2023-03-01T14:14:12;16.10;35.90
23231;DHT22;11784;49.818;8.632;2023-03-01T14:19:28;18.00;33.10
23231;DHT22;11784;49.818;8.632;2023-03-01T14:22:18;19.00;31.40
23231;DHT22;11784;49.818;8.632;2023-03-01T14:24:50;19.90;29.60
23231;DHT22;11784;49.818;8.632;2023-03-01T14:27:17;20.60;28.20
23231;DHT22;11784;49.818;8.632;2023-03-01T14:29:44;21.00;27.70
23231;DHT22;11784;49.818;8.632;2023-03-01T14:32:20;21.20;27.40
23231;DHT22;11784;49.818;8.632;2023-03-01T14:34:48;21.30;27.60
23231;DHT22;11784;49.818;8.632;2023-03-01T14:37:31;21.10;27.00
23231;DHT22;11784;49.818;8.632;2023-03-01T14:39:58;20.80;27.40
23231;DHT22;11784;49.818;8.632;2023-03-01T14:42:26;20.50;27.30
23231;DHT22;11784;49.818;8.632;2023-03-01T14:44:54;20.20;27.40
23231;DHT22;11784;49.818;8.632;2023-03-01T14:47:32;20.00;27.60
23231;DHT22;11784;49.818;8.632;2023-03-01T14:50:43;19.90;28.40
23231;DHT22;11784;49.818;8.632;2023-03-01T14:52:52;19.70;28.20
23231;DHT22;11784;49.818;8.632;2023-03-01T14:55:21;19.50;28.30
23231;DHT22;11784;49.818;8.632;2023-03-01T14:57:49;19.30;28.70
23231;DHT22;11784;49.818;8.632;2023-03-01T15:02:47;19.00;29.10
23231;DHT22;11784;49.818;8.632;2023-03-01T15:05:14;19.00;29.60
23231;DHT22;11784;49.818;8.632;2023-03-01T15:07:42;19.00;29.20
23231;DHT22;11784;49.818;8.632;2023-03-01T15:12:44;18.90;29.30
23231;DHT22;11784;49.818;8.632;2023-03-01T15:15:34;18.80;29.60
23231;DHT22;11784;49.818;8.632;2023-03-01T15:18:16;18.90;29.70
23231;DHT22;11784;49.818;8.632;2023-03-01T15:20:42;18.80;29.80
23231;DHT22;11784;49.818;8.632;2023-03-01T15:23:24;18.80;29.80
23231;DHT22;11784;49.818;8.632;2023-03-01T15:25:51;18.60;29.80
23231;DHT22;11784;49.818;8.632;2023-03-01T15:28:31;18.50;29.80
23231;DHT22;11784;49.818;8.632;2023-03-01T15:31:05;18.50;30.50
23231;DHT22;11784;49.818;8.632;2023-03-01T15:33:37;18.50;30.10
23231;DHT22;11784;49.818;8.632;2023-03-01T15:36:30;18.50;30.10
23231;DHT22;11784;49.818;8.632;2023-03-01T15:38:57;18.60;29.90
23231;DHT22;11784;49.818;8.632;2023-03-01T15:41:37;18.60;29.80
23231;DHT22;11784;49.818;8.632;2023-03-01T15:44:28;18.70;29.70
23231;DHT22;11784;49.818;8.632;2023-03-01T15:46:54;18.90;30.00
23231;DHT22;11784;49.818;8.632;2023-03-01T15:49:39;19.10;30.00
23231;DHT22;11784;49.818;8.632;2023-03-01T15:52:10;19.30;29.90
23231;DHT22;11784;49.818;8.632;2023-03-01T15:54:39;19.60;30.30
23231;DHT22;11784;49.818;8.632;2023-03-01T15:57:12;20.00;29.10
23231;DHT22;11784;49.818;8.632;2023-03-01T15:59:38;20.20;28.50
23231;DHT22;11784;49.818;8.632;2023-03-01T16:02:11;20.00;28.30
23231;DHT22;11784;49.818;8.632;2023-03-01T16:04:38;19.60;28.40
23231;DHT22;11784;49.818;8.632;2023-03-01T16:07:03;19.00;29.00
23231;DHT22;11784;49.818;8.632;2023-03-01T16:09:29;18.40;29.80
23231;DHT22;11784;49.818;8.632;2023-03-01T16:11:54;17.70;30.20
23231;DHT22;11784;49.818;8.632;2023-03-01T16:14:20;17.10;31.20
23231;DHT22;11784;49.818;8.632;2023-03-01T16:16:46;16.50;32.80
23231;DHT22;11784;49.818;8.632;2023-03-01T16:19:13;16.10;33.70
23231;DHT22;11784;49.818;8.632;2023-03-01T16:21:39;15.60;34.00
23231;DHT22;11784;49.818;8.632;2023-03-01T16:24:05;15.20;34.90
23231;DHT22;11784;49.818;8.632;2023-03-01T16:26:31;14.80;35.50
23231;DHT22;11784;49.818;8.632;2023-03-01T16:28:57;14.40;36.30
23231;DHT22;11784;49.818;8.632;2023-03-01T16:31:23;14.00;36.90
23231;DHT22;11784;49.818;8.632;2023-03-01T16:33:53;13.70;37.70
23231;DHT22;11784;49.818;8.632;2023-03-01T16:36:21;13.50;38.70
23231;DHT22;11784;49.818;8.632;2023-03-01T16:38:49;13.20;39.20
23231;DHT22;11784;49.818;8.632;2023-03-01T16:41:17;13.00;39.40
23231;DHT22;11784;49.818;8.632;2023-03-01T16:43:44;12.70;39.90
23231;DHT22;11784;49.818;8.632;2023-03-01T16:46:22;12.60;40.60
23231;DHT22;11784;49.818;8.632;2023-03-01T16:48:49;12.40;40.80
23231;DHT22;11784;49.818;8.632;2023-03-01T16:51:15;12.30;41.40
23231;DHT22;11784;49.818;8.632;2023-03-01T16:53:41;12.20;41.60
23231;DHT22;11784;49.818;8.632;2023-03-01T16:56:08;12.10;41.90
23231;DHT22;11784;49.818;8.632;2023-03-01T16:58:35;12.00;42.10
23231;DHT22;11784;49.818;8.632;2023-03-01T17:01:10;11.90;42.30
23231;DHT22;11784;49.818;8.632;2023-03-01T17:03:37;11.80;42.60
23231;DHT22;11784;49.818;8.632;2023-03-01T17:06:10;11.70;42.80
23231;DHT22;11784;49.818;8.632;2023-03-01T17:08:37;11.50;43.20
23231;DHT22;11784;49.818;8.632;2023-03-01T17:11:17;11.40;43.30
23231;DHT22;11784;49.818;8.632;2023-03-01T17:13:43;11.40;43.70
23231;DHT22;11784;49.818;8.632;2023-03-01T17:16:12;11.30;44.10
23231;DHT22;11784;49.818;8.632;2023-03-01T17:18:38;11.20;44.30
23231;DHT22;11784;49.818;8.632;2023-03-01T17:21:04;11.10;44.90
23231;DHT22;11784;49.818;8.632;2023-03-01T17:23:30;11.00;45.20
23231;DHT22;11784;49.818;8.632;2023-03-01T17:25:56;10.90;45.30
23231;DHT22;11784;49.818;8.632;2023-03-01T17:28:23;10.90;45.80